Time;durP1;ratioP1;P1;durP2;ratioP2;P2;SDS_P1;SDS_P2;PMS_P1;PMS_P2;Temp;Humidity;BMP_temperature;BMP_pressure;BME280_temperature;BME280_humidity;BME280_pressure;Samples;Min_cycle;Max_cycle;Signal;HPM_P1;HPM_P2
2021/10/02 00:36:21;;;;;;;47.53;27.98;;;;;;;;;;5015796;28;20053;-43
2021/10/02 00:41:48;;;;;;;21.25;13.50;;;;;;;;;;5015281;28;20033;-43
2021/10/02 00:44:47;;;;;;;24.83;12.10;;;;;;;;;;5015171;28;20152;-44
2021/10/02 00:47:07;;;;;;;29.92;17.05;;;;;;;;;;5010916;28;20042;-44
2021/10/02 00:49:38;;;;;;;27.80;14.02;;;;;;;;;;5015056;28;20080;-43
2021/10/02 00:52:07;;;;;;;38.77;20.83;;;;;;;;;;5013832;28;20053;-43
2021/10/02 00:54:33;;;;;;;36.22;18.40;;;;;;;;;;5015284;28;20410;-43
2021/10/02 00:56:59;;;;;;;26.63;15.18;;;;;;;;;;5014716;28;20018;-43
2021/10/02 00:59:29;;;;;;;27.23;15.52;;;;;;;;;;5014845;28;20147;-43
2021/10/02 01:01:59;;;;;;;22.40;12.88;;;;;;;;;;5014728;28;20022;-43
2021/10/02 01:04:44;;;;;;;77.82;41.28;;;;;;;;;;5014894;28;20033;-43
2021/10/02 01:07:29;;;;;;;28.80;15.60;;;;;;;;;;5014412;28;20042;-43
2021/10/02 01:10:14;;;;;;;25.35;14.07;;;;;;;;;;5014437;28;20057;-43
2021/10/02 01:12:49;;;;;;;31.83;19.65;;;;;;;;;;5014247;28;20041;-43
2021/10/02 01:15:35;;;;;;;17.77;11.45;;;;;;;;;;5014454;28;20030;-43
2021/10/02 01:18:30;;;;;;;28.88;19.02;;;;;;;;;;5000813;28;20045;-43
2021/10/02 01:20:56;;;;;;;27.92;13.57;;;;;;;;;;4934824;29;20123;-44
2021/10/02 01:23:24;;;;;;;29.38;15.90;;;;;;;;;;4934767;29;20036;-44
2021/10/02 01:25:53;;;;;;;23.50;12.60;;;;;;;;;;4934605;29;20047;-43
2021/10/02 01:28:20;;;;;;;26.90;16.33;;;;;;;;;;4934701;29;20047;-43
2021/10/02 01:31:07;;;;;;;23.90;11.50;;;;;;;;;;4934718;28;20032;-42
2021/10/02 01:47:19;;;;;;;21.90;12.43;;;;;;;;;;4878036;29;20084;-42
2021/10/02 01:49:49;;;;;;;19.45;12.75;;;;;;;;;;4877964;29;20041;-42
2021/10/02 01:52:16;;;;;;;19.52;11.07;;;;;;;;;;4878066;29;20040;-42
2021/10/02 01:54:43;;;;;;;24.90;11.52;;;;;;;;;;4878037;29;20029;-42
2021/10/02 01:57:09;;;;;;;20.27;11.50;;;;;;;;;;4887349;29;20441;-42
2021/10/02 01:59:35;;;;;;;16.52;11.30;;;;;;;;;;4915365;29;20110;-42
2021/10/02 02:02:02;;;;;;;19.38;11.95;;;;;;;;;;4915613;29;20500;-42
2021/10/02 02:04:29;;;;;;;20.33;12.43;;;;;;;;;;4914962;29;20028;-43
2021/10/02 02:06:57;;;;;;;24.75;12.93;;;;;;;;;;4915290;29;20040;-42
2021/10/02 02:09:25;;;;;;;27.23;13.48;;;;;;;;;;4915362;29;20228;-43
2021/10/02 02:11:52;;;;;;;18.00;13.43;;;;;;;;;;4899356;29;20032;-43
2021/10/02 02:14:18;;;;;;;18.80;11.85;;;;;;;;;;4915253;29;20028;-44
2021/10/02 02:16:46;;;;;;;17.23;12.13;;;;;;;;;;4975661;28;20045;-47
2021/10/02 02:19:13;;;;;;;25.67;13.13;;;;;;;;;;4993965;28;20030;-42
2021/10/02 02:21:39;;;;;;;24.92;12.60;;;;;;;;;;4994051;28;20479;-44
2021/10/02 02:24:06;;;;;;;26.13;14.30;;;;;;;;;;4994127;28;20030;-43
2021/10/02 02:26:32;;;;;;;21.17;12.23;;;;;;;;;;4976557;28;20038;-42
2021/10/02 02:28:58;;;;;;;20.10;12.55;;;;;;;;;;4993972;28;20037;-42
2021/10/02 02:31:25;;;;;;;25.98;13.48;;;;;;;;;;4993961;28;20026;-42
2021/10/02 02:33:51;;;;;;;25.17;14.93;;;;;;;;;;4996375;28;20081;-42
2021/10/02 02:36:17;;;;;;;18.70;12.10;;;;;;;;;;5013726;28;20030;-44
2021/10/02 02:38:43;;;;;;;22.52;12.38;;;;;;;;;;5013670;28;20029;-43
2021/10/02 02:41:10;;;;;;;22.42;12.75;;;;;;;;;;5013567;28;20069;-43
2021/10/02 02:43:36;;;;;;;20.48;12.43;;;;;;;;;;5013968;28;20026;-43
2021/10/02 02:46:17;;;;;;;25.98;12.98;;;;;;;;;;5013100;28;20029;-43
2021/10/02 02:48:43;;;;;;;;;;;;;;;;;;5013559;28;20026;-40
2021/10/02 02:51:15;;;;;;;18.55;11.85;;;;;;;;;;5013527;28;19914;-41
2021/10/02 02:53:48;;;;;;;18.70;10.38;;;;;;;;;;4995581;28;20034;-41
2021/10/02 02:56:34;;;;;;;21.77;13.52;;;;;;;;;;5012934;28;20068;-41
2021/10/02 02:59:07;;;;;;;21.17;11.95;;;;;;;;;;5013115;28;20026;-41
2021/10/02 03:01:36;;;;;;;21.58;12.15;;;;;;;;;;5013064;28;20022;-41
2021/10/02 03:04:05;;;;;;;21.90;12.02;;;;;;;;;;5013345;28;20061;-44
2021/10/02 03:06:33;;;;;;;22.40;12.60;;;;;;;;;;5013239;28;20026;-41
2021/10/02 03:09:00;;;;;;;22.73;11.70;;;;;;;;;;5013448;28;20072;-41
2021/10/02 03:11:27;;;;;;;22.13;12.90;;;;;;;;;;5013276;28;20026;-41
2021/10/02 03:13:55;;;;;;;26.25;12.63;;;;;;;;;;5013160;28;20026;-41
2021/10/02 03:16:23;;;;;;;17.55;11.93;;;;;;;;;;5015388;28;20030;-41
2021/10/02 03:18:53;;;;;;;24.27;12.20;;;;;;;;;;5016718;28;20037;-41
2021/10/02 03:21:23;;;;;;;23.33;11.82;;;;;;;;;;5016853;28;20028;-41
2021/10/02 03:23:50;;;;;;;24.52;12.35;;;;;;;;;;5016706;28;20117;-42
2021/10/02 03:26:17;;;;;;;21.90;12.00;;;;;;;;;;5016570;28;20419;-42
2021/10/02 03:28:44;;;;;;;21.48;11.98;;;;;;;;;;5016511;28;20076;-41
2021/10/02 03:31:10;;;;;;;21.40;11.38;;;;;;;;;;5016488;28;20080;-42
2021/10/02 03:33:41;;;;;;;21.20;12.25;;;;;;;;;;5016393;28;20117;-42
2021/10/02 03:36:10;;;;;;;21.33;12.88;;;;;;;;;;5016236;28;20042;-41
2021/10/02 03:38:37;;;;;;;21.70;12.10;;;;;;;;;;5016415;28;20025;-41
2021/10/02 03:41:03;;;;;;;19.85;12.27;;;;;;;;;;5016344;28;20025;-42
2021/10/02 03:43:30;;;;;;;19.75;11.68;;;;;;;;;;5016288;28;20461;-41
2021/10/02 03:45:57;;;;;;;19.35;10.93;;;;;;;;;;5016017;28;20034;-42
2021/10/02 03:48:23;;;;;;;23.33;12.68;;;;;;;;;;5016175;28;20029;-41
2021/10/02 03:50:49;;;;;;;20.33;11.15;;;;;;;;;;5016030;28;20026;-41
2021/10/02 03:53:15;;;;;;;18.90;11.93;;;;;;;;;;5015927;28;20021;-41
2021/10/02 03:55:44;;;;;;;26.83;13.38;;;;;;;;;;5015836;28;20375;-42
2021/10/02 03:58:10;;;;;;;25.52;12.30;;;;;;;;;;5015830;28;20489;-41
2021/10/02 04:00:36;;;;;;;22.45;12.30;;;;;;;;;;5016048;28;20381;-41
2021/10/02 04:03:05;;;;;;;19.10;12.98;;;;;;;;;;4998362;28;20042;-42
2021/10/02 04:05:35;;;;;;;20.08;11.82;;;;;;;;;;4998100;28;20390;-42
2021/10/02 04:08:01;;;;;;;22.77;11.63;;;;;;;;;;5016219;28;20510;-42
2021/10/02 04:10:27;;;;;;;21.08;11.75;;;;;;;;;;5015744;28;20044;-42
2021/10/02 04:12:53;;;;;;;19.20;11.02;;;;;;;;;;5015845;28;20033;-42
2021/10/02 04:15:20;;;;;;;20.23;12.43;;;;;;;;;;5015554;28;20017;-41
2021/10/02 04:17:46;;;;;;;22.73;11.73;;;;;;;;;;5015620;28;20072;-41
2021/10/02 04:20:12;;;;;;;19.83;11.35;;;;;;;;;;5015339;28;20326;-42
2021/10/02 04:22:40;;;;;;;21.88;11.10;;;;;;;;;;5015267;28;20108;-42
2021/10/02 04:25:07;;;;;;;19.80;11.35;;;;;;;;;;5015650;28;20046;-42
2021/10/02 04:27:33;;;;;;;21.50;10.23;;;;;;;;;;5014994;28;20038;-42
2021/10/02 04:29:59;;;;;;;22.38;11.05;;;;;;;;;;5015387;28;20543;-42
2021/10/02 04:32:25;;;;;;;24.35;11.88;;;;;;;;;;5015442;28;20084;-42
2021/10/02 04:34:51;;;;;;;17.88;10.50;;;;;;;;;;5015269;28;20042;-43
2021/10/02 04:37:19;;;;;;;18.25;10.88;;;;;;;;;;5015079;28;20060;-42
2021/10/02 04:39:46;;;;;;;18.27;10.88;;;;;;;;;;5015123;28;20152;-41
2021/10/02 04:42:12;;;;;;;17.73;10.60;;;;;;;;;;5014896;28;20018;-41
2021/10/02 04:44:38;;;;;;;18.95;11.45;;;;;;;;;;5015054;28;20066;-44
2021/10/02 04:47:06;;;;;;;17.30;10.13;;;;;;;;;;5014728;28;20077;-41
2021/10/02 04:49:32;;;;;;;19.45;11.35;;;;;;;;;;5014697;28;20029;-44
2021/10/02 04:51:58;;;;;;;18.48;10.18;;;;;;;;;;5014762;28;20109;-41
2021/10/02 04:54:24;;;;;;;19.08;9.82;;;;;;;;;;5014859;28;20026;-43
2021/10/02 04:56:51;;;;;;;15.93;10.23;;;;;;;;;;5014806;28;20080;-41
2021/10/02 04:59:17;;;;;;;20.65;10.13;;;;;;;;;;5014757;28;20080;-41
2021/10/02 05:01:45;;;;;;;14.93;9.25;;;;;;;;;;5014747;28;20025;-41
2021/10/02 05:04:11;;;;;;;17.27;10.07;;;;;;;;;;5015152;28;20414;-41
2021/10/02 05:06:38;;;;;;;15.75;9.70;;;;;;;;;;5014522;28;20052;-41
2021/10/02 05:09:04;;;;;;;12.38;8.68;;;;;;;;;;4996535;28;20030;-41
2021/10/02 05:11:30;;;;;;;10.95;7.80;;;;;;;;;;5014717;28;20025;-43
2021/10/02 05:13:56;;;;;;;14.00;7.90;;;;;;;;;;5014653;28;20071;-44
2021/10/02 05:16:24;;;;;;;12.98;7.70;;;;;;;;;;5014398;28;20021;-44
2021/10/02 05:18:51;;;;;;;13.18;8.48;;;;;;;;;;5014409;28;20040;-42
2021/10/02 05:21:17;;;;;;;14.75;7.53;;;;;;;;;;5014356;28;20026;-42
2021/10/02 05:23:43;;;;;;;13.05;8.13;;;;;;;;;;5014329;28;20049;-42
2021/10/02 05:26:09;;;;;;;21.02;8.45;;;;;;;;;;5014323;28;20030;-44
2021/10/02 05:28:36;;;;;;;12.05;8.02;;;;;;;;;;5014354;28;20125;-42
2021/10/02 05:31:02;;;;;;;13.75;7.78;;;;;;;;;;4996222;28;20454;-44
2021/10/02 05:33:28;;;;;;;17.92;8.15;;;;;;;;;;5014415;28;20034;-43
2021/10/02 05:35:54;;;;;;;16.55;7.40;;;;;;;;;;5013957;28;20078;-42
2021/10/02 05:38:20;;;;;;;17.45;7.35;;;;;;;;;;5014003;28;20029;-42
2021/10/02 05:40:47;;;;;;;15.48;7.32;;;;;;;;;;4996233;28;20049;-42
2021/10/02 05:43:14;;;;;;;13.50;7.05;;;;;;;;;;5014299;28;20057;-45
2021/10/02 05:45:40;;;;;;;22.63;6.80;;;;;;;;;;4996075;28;20429;-44
2021/10/02 05:48:06;;;;;;;17.08;7.10;;;;;;;;;;5014036;28;20073;-41
2021/10/02 05:50:32;;;;;;;15.27;7.68;;;;;;;;;;5013771;28;20076;-42
2021/10/02 05:52:58;;;;;;;12.50;7.22;;;;;;;;;;5013894;28;20025;-42
2021/10/02 05:55:25;;;;;;;15.63;7.55;;;;;;;;;;5013796;28;20482;-42
2021/10/02 05:57:51;;;;;;;11.20;6.60;;;;;;;;;;5013727;28;20025;-42
2021/10/02 06:00:17;;;;;;;8.77;6.43;;;;;;;;;;5013755;28;20072;-42
2021/10/02 06:02:43;;;;;;;10.80;6.13;;;;;;;;;;5013613;28;20018;-42
2021/10/02 06:05:09;;;;;;;13.00;6.65;;;;;;;;;;5013461;28;20087;-42
2021/10/02 06:07:35;;;;;;;10.50;6.00;;;;;;;;;;5014008;28;20085;-42
2021/10/02 06:10:01;;;;;;;12.05;6.18;;;;;;;;;;5013803;28;20025;-42
2021/10/02 06:12:27;;;;;;;15.20;6.00;;;;;;;;;;5013811;28;20497;-42
2021/10/02 06:14:53;;;;;;;9.93;6.30;;;;;;;;;;5013876;28;20033;-45
2021/10/02 06:17:20;;;;;;;16.08;6.70;;;;;;;;;;5013601;28;20037;-45
2021/10/02 06:19:48;;;;;;;10.52;6.97;;;;;;;;;;5013650;28;20114;-45
2021/10/02 06:22:14;;;;;;;12.55;6.80;;;;;;;;;;5013654;28;20057;-45
2021/10/02 06:24:40;;;;;;;8.73;6.25;;;;;;;;;;5013944;28;20026;-43
2021/10/02 06:27:06;;;;;;;15.40;7.05;;;;;;;;;;5013297;28;20134;-43
2021/10/02 06:29:33;;;;;;;14.85;6.13;;;;;;;;;;5013748;28;20097;-44
2021/10/02 06:31:59;;;;;;;14.05;7.40;;;;;;;;;;5013568;28;20068;-44
2021/10/02 06:34:28;;;;;;;10.88;6.85;;;;;;;;;;5013663;28;20045;-45
2021/10/02 06:36:54;;;;;;;14.65;8.23;;;;;;;;;;4995896;28;20049;-49
2021/10/02 06:39:20;;;;;;;16.50;8.55;;;;;;;;;;5013460;28;20028;-43
2021/10/02 06:41:48;;;;;;;14.50;8.15;;;;;;;;;;5013689;28;20034;-44
2021/10/02 06:44:15;;;;;;;21.83;9.32;;;;;;;;;;5013517;28;20147;-44
2021/10/02 06:46:41;;;;;;;12.27;7.00;;;;;;;;;;5013489;28;20038;-49
2021/10/02 06:49:07;;;;;;;12.88;7.07;;;;;;;;;;5013320;28;20022;-44
2021/10/02 06:51:33;;;;;;;11.45;7.00;;;;;;;;;;5016219;28;20022;-45
2021/10/02 06:53:59;;;;;;;9.55;6.78;;;;;;;;;;5017648;28;20026;-45
2021/10/02 06:56:26;;;;;;;12.55;6.60;;;;;;;;;;5017382;28;20034;-45
2021/10/02 06:58:52;;;;;;;18.35;7.32;;;;;;;;;;5017313;28;20026;-45
2021/10/02 07:01:18;;;;;;;12.00;6.55;;;;;;;;;;5017230;28;20104;-44
2021/10/02 07:03:44;;;;;;;15.63;6.82;;;;;;;;;;5017429;28;20033;-45
2021/10/02 07:06:10;;;;;;;16.00;6.95;;;;;;;;;;5016916;28;20456;-44
2021/10/02 07:08:36;;;;;;;15.13;6.75;;;;;;;;;;5004462;28;20034;-44
2021/10/02 07:11:02;;;;;;;14.52;7.82;;;;;;;;;;4986064;28;20023;-46
2021/10/02 07:13:29;;;;;;;17.42;7.47;;;;;;;;;;4986308;28;20022;-44
2021/10/02 07:15:55;;;;;;;30.85;14.15;;;;;;;;;;4987639;28;20379;-47
2021/10/02 07:18:21;;;;;;;15.15;8.13;;;;;;;;;;4986007;28;20015;-45
2021/10/02 07:20:47;;;;;;;10.10;7.05;;;;;;;;;;4986595;28;20026;-45
2021/10/02 07:23:13;;;;;;;13.95;8.15;;;;;;;;;;4985975;28;21227;-45
2021/10/02 07:25:42;;;;;;;16.42;8.63;;;;;;;;;;4987456;28;20378;-45
2021/10/02 07:28:08;;;;;;;17.27;7.18;;;;;;;;;;4986284;28;20030;-45
2021/10/02 07:30:34;;;;;;;28.02;14.75;;;;;;;;;;4986064;28;20018;-46
2021/10/02 07:33:00;;;;;;;18.08;6.80;;;;;;;;;;4988086;28;20466;-47
2021/10/02 07:35:28;;;;;;;14.70;7.60;;;;;;;;;;4986197;28;20051;-46
2021/10/02 07:37:54;;;;;;;30.27;15.98;;;;;;;;;;4985681;28;20514;-46
2021/10/02 07:40:21;;;;;;;22.20;10.10;;;;;;;;;;4987209;28;20378;-47
2021/10/02 07:42:51;;;;;;;25.05;8.07;;;;;;;;;;4988825;28;20027;-45
2021/10/02 07:45:22;;;;;;;16.17;7.03;;;;;;;;;;4986764;28;20026;-47
2021/10/02 07:47:54;;;;;;;17.42;7.85;;;;;;;;;;4985596;28;20517;-43
2021/10/02 07:50:20;;;;;;;22.85;11.15;;;;;;;;;;4986074;28;20031;-48
2021/10/02 07:52:46;;;;;;;17.27;10.27;;;;;;;;;;4985365;28;20026;-46
2021/10/02 07:55:13;;;;;;;14.52;8.73;;;;;;;;;;4986965;28;20046;-48
2021/10/02 07:57:41;;;;;;;18.77;9.55;;;;;;;;;;4984128;28;20026;-49
2021/10/02 08:00:08;;;;;;;15.98;6.60;;;;;;;;;;4985774;28;20066;-45
2021/10/02 08:02:35;;;;;;;14.95;6.80;;;;;;;;;;4985338;28;20018;-47
2021/10/02 08:05:01;;;;;;;12.27;5.97;;;;;;;;;;4985384;28;20023;-44
2021/10/02 08:07:30;;;;;;;11.90;6.32;;;;;;;;;;4984893;28;20041;-44
2021/10/02 08:09:56;;;;;;;16.25;6.22;;;;;;;;;;4984965;28;20483;-45
2021/10/02 08:12:23;;;;;;;27.25;15.45;;;;;;;;;;4985572;28;20412;-44
2021/10/02 08:14:49;;;;;;;15.48;7.25;;;;;;;;;;4986715;28;20033;-43
2021/10/02 08:17:16;;;;;;;19.00;8.43;;;;;;;;;;4983144;28;20440;-43
2021/10/02 08:19:45;;;;;;;22.40;7.18;;;;;;;;;;4985533;28;20114;-43
2021/10/02 08:22:12;;;;;;;18.00;9.77;;;;;;;;;;4986229;28;20022;-47
2021/10/02 08:24:39;;;;;;;11.90;7.15;;;;;;;;;;4984976;28;20042;-44
2021/10/02 08:27:06;;;;;;;26.02;10.73;;;;;;;;;;4984893;28;20034;-47
2021/10/02 08:29:32;;;;;;;19.17;6.10;;;;;;;;;;4986456;28;20069;-47
2021/10/02 08:31:58;;;;;;;20.75;6.72;;;;;;;;;;4984797;28;20022;-45
2021/10/02 08:34:25;;;;;;;13.77;6.53;;;;;;;;;;4982224;28;20043;-43
2021/10/02 08:36:53;;;;;;;10.10;5.72;;;;;;;;;;4974947;28;20475;-44
2021/10/02 08:39:19;;;;;;;13.57;6.82;;;;;;;;;;4975426;28;20034;-46
2021/10/02 08:41:46;;;;;;;14.15;6.57;;;;;;;;;;4975327;28;20027;-42
2021/10/02 08:44:16;;;;;;;19.48;6.35;;;;;;;;;;4975144;28;20078;-44
2021/10/02 08:46:43;;;;;;;17.67;7.27;;;;;;;;;;4975377;28;20027;-44
2021/10/02 08:49:27;;;;;;;13.90;7.90;;;;;;;;;;4974512;28;20046;-43
2021/10/02 08:51:53;;;;;;;22.55;12.27;;;;;;;;;;4975499;28;20014;-43
2021/10/02 08:54:20;;;;;;;20.08;10.75;;;;;;;;;;4975360;28;20117;-44
2021/10/02 08:56:46;;;;;;;26.30;11.68;;;;;;;;;;4975130;28;20394;-43
2021/10/02 08:59:16;;;;;;;25.02;7.28;;;;;;;;;;4975330;28;20375;-44
2021/10/02 09:01:42;;;;;;;21.98;7.25;;;;;;;;;;4975131;28;20019;-44
2021/10/02 09:04:09;;;;;;;27.80;8.27;;;;;;;;;;4975130;28;20106;-43
2021/10/02 09:06:38;;;;;;;19.65;6.22;;;;;;;;;;4975224;28;20027;-44
2021/10/02 09:09:05;;;;;;;11.98;6.03;;;;;;;;;;4975012;28;20027;-43
2021/10/02 09:11:32;;;;;;;18.35;5.93;;;;;;;;;;4974567;28;20055;-46
2021/10/02 09:13:58;;;;;;;9.82;5.75;;;;;;;;;;4973864;28;20027;-46
2021/10/02 09:16:24;;;;;;;13.30;5.43;;;;;;;;;;4974489;28;20467;-46
2021/10/02 09:18:50;;;;;;;15.65;6.00;;;;;;;;;;4974956;28;20647;-47
2021/10/02 09:21:16;;;;;;;20.35;6.18;;;;;;;;;;4974745;28;20077;-47
2021/10/02 09:23:44;;;;;;;19.65;7.63;;;;;;;;;;4974826;28;20423;-51
2021/10/02 09:26:10;;;;;;;16.50;6.35;;;;;;;;;;4974964;28;20045;-47
2021/10/02 09:28:41;;;;;;;17.95;9.27;;;;;;;;;;4974505;28;20035;-46
2021/10/02 09:31:08;;;;;;;15.70;7.67;;;;;;;;;;4974470;28;20026;-47
2021/10/02 09:33:34;;;;;;;24.23;13.32;;;;;;;;;;4974201;28;20152;-47
2021/10/02 09:36:03;;;;;;;40.55;19.77;;;;;;;;;;4974569;28;20114;-47
2021/10/02 09:38:32;;;;;;;14.88;7.13;;;;;;;;;;4974337;28;20031;-47
2021/10/02 09:41:00;;;;;;;18.55;8.02;;;;;;;;;;4973728;28;20082;-47
2021/10/02 09:43:28;;;;;;;19.13;7.68;;;;;;;;;;4973586;28;20390;-48
2021/10/02 09:45:54;;;;;;;27.88;13.40;;;;;;;;;;4974270;28;20029;-47
2021/10/02 09:48:31;;;;;;;16.35;6.88;;;;;;;;;;4941020;28;20050;-48
2021/10/02 09:51:06;;;;;;;25.83;11.43;;;;;;;;;;4972425;28;20106;-47
2021/10/02 09:53:42;;;;;;;27.75;11.73;;;;;;;;;;4974147;28;20023;-48
2021/10/02 09:56:12;;;;;;;15.57;9.07;;;;;;;;;;4974107;28;20033;-48
2021/10/02 09:58:39;;;;;;;11.13;6.60;;;;;;;;;;4972801;28;20392;-49
2021/10/02 10:01:08;;;;;;;11.90;5.65;;;;;;;;;;4974182;28;20046;-49
2021/10/02 10:03:42;;;;;;;11.45;5.13;;;;;;;;;;4974200;28;20155;-49
2021/10/02 10:06:27;;;;;;;10.05;4.80;;;;;;;;;;4973034;28;20375;-49
2021/10/02 10:09:10;;;;;;;13.13;4.88;;;;;;;;;;4974527;28;20113;-50
2021/10/02 10:11:40;;;;;;;11.82;4.63;;;;;;;;;;4974537;28;20023;-49
2021/10/02 10:14:06;;;;;;;11.48;5.43;;;;;;;;;;4974296;28;20033;-49
2021/10/02 10:16:39;;;;;;;8.50;4.82;;;;;;;;;;4974493;28;20463;-48
2021/10/02 10:19:22;;;;;;;12.90;5.35;;;;;;;;;;4974521;28;20103;-49
2021/10/02 10:22:08;;;;;;;15.20;4.88;;;;;;;;;;4974521;28;20698;-53
2021/10/02 10:24:34;;;;;;;16.35;5.45;;;;;;;;;;4974125;28;20081;-49
2021/10/02 10:27:01;;;;;;;8.95;4.28;;;;;;;;;;4973386;28;20041;-49
2021/10/02 10:29:42;;;;;;;12.35;4.78;;;;;;;;;;4973599;28;20038;-48
2021/10/02 10:32:07;;;;;;;;;;;;;;;;;;4972039;28;20023;-50
2021/10/02 10:34:37;;;;;;;9.15;6.45;;;;;;;;;;4976892;28;20362;-48
2021/10/02 10:37:03;;;;;;;21.60;9.38;;;;;;;;;;4982821;28;20037;-48
2021/10/02 10:39:29;;;;;;;17.33;9.13;;;;;;;;;;4971602;28;20030;-56
2021/10/02 10:41:56;;;;;;;12.80;5.72;;;;;;;;;;4966595;28;20061;-55
2021/10/02 10:44:22;;;;;;;15.35;6.95;;;;;;;;;;4967073;28;20023;-48
2021/10/02 10:46:48;;;;;;;10.02;5.03;;;;;;;;;;4966872;28;20397;-52
2021/10/02 10:49:14;;;;;;;7.00;5.03;;;;;;;;;;4967273;28;20066;-49
2021/10/02 10:51:42;;;;;;;17.17;7.20;;;;;;;;;;4967370;28;20034;-48
2021/10/02 10:54:17;;;;;;;10.52;5.22;;;;;;;;;;4967144;28;20037;-49
2021/10/02 10:56:46;;;;;;;18.85;6.88;;;;;;;;;;4966816;28;20088;-48
2021/10/02 10:59:17;;;;;;;9.60;5.55;;;;;;;;;;4967050;28;20041;-48
2021/10/02 11:01:43;;;;;;;15.43;4.95;;;;;;;;;;4966508;28;20334;-50
2021/10/02 11:04:28;;;;;;;11.80;4.80;;;;;;;;;;4966642;28;20034;-50
2021/10/02 11:06:59;;;;;;;8.30;5.47;;;;;;;;;;4966529;28;20801;-54
2021/10/02 11:09:45;;;;;;;12.48;7.82;;;;;;;;;;4967114;28;20045;-53
2021/10/02 11:12:12;;;;;;;15.52;5.85;;;;;;;;;;4966347;28;20029;-55
2021/10/02 11:14:47;;;;;;;13.07;8.48;;;;;;;;;;4966589;28;20779;-47
2021/10/02 11:17:37;;;;;;;16.08;5.28;;;;;;;;;;4966601;28;20030;-53
2021/10/02 11:20:20;;;;;;;9.52;5.80;;;;;;;;;;4902004;29;20042;-58
2021/10/02 11:23:13;;;;;;;10.90;5.55;;;;;;;;;;4901288;29;20112;-51
2021/10/02 11:25:42;;;;;;;14.35;5.68;;;;;;;;;;4900725;29;20043;-53
2021/10/02 11:28:25;;;;;;;13.95;6.93;;;;;;;;;;4901050;29;20044;-50
2021/10/02 11:30:52;;;;;;;14.13;5.38;;;;;;;;;;4900881;29;20498;-53
2021/10/02 11:33:47;;;;;;;9.63;5.57;;;;;;;;;;4900944;29;20036;-50
2021/10/02 11:36:31;;;;;;;9.77;5.15;;;;;;;;;;4887025;29;20052;-50
2021/10/02 11:39:12;;;;;;;21.52;10.32;;;;;;;;;;4904762;29;20036;-50
2021/10/02 11:41:49;;;;;;;15.90;6.03;;;;;;;;;;4904610;29;20075;-49
2021/10/02 11:44:36;;;;;;;15.10;4.78;;;;;;;;;;4904301;29;20426;-50
2021/10/02 11:47:26;;;;;;;11.15;5.30;;;;;;;;;;4904179;29;20035;-51
2021/10/02 11:50:10;;;;;;;12.43;5.95;;;;;;;;;;4903489;29;20031;-49
2021/10/02 11:52:56;;;;;;;17.63;5.93;;;;;;;;;;4903540;29;20036;-56
2021/10/02 11:55:40;;;;;;;11.35;4.55;;;;;;;;;;4903496;29;20071;-55
2021/10/02 11:58:09;;;;;;;9.93;5.03;;;;;;;;;;4957838;28;20038;-53
2021/10/02 12:00:46;;;;;;;13.05;4.45;;;;;;;;;;4968980;28;20073;-47
2021/10/02 12:03:13;;;;;;;10.00;5.10;;;;;;;;;;4967868;28;20085;-56
2021/10/02 12:05:43;;;;;;;11.30;4.60;;;;;;;;;;4968255;28;20038;-50
2021/10/02 12:08:10;;;;;;;9.80;4.70;;;;;;;;;;4968595;28;20049;-57
2021/10/02 12:10:57;;;;;;;12.93;4.57;;;;;;;;;;4968281;28;20027;-47
2021/10/02 12:13:35;;;;;;;12.02;5.00;;;;;;;;;;4969204;28;20026;-65
2021/10/02 12:16:04;;;;;;;18.73;5.75;;;;;;;;;;4969416;28;20345;-48
2021/10/02 12:18:49;;;;;;;18.00;5.60;;;;;;;;;;4968870;28;20068;-52
2021/10/02 12:21:25;;;;;;;12.10;4.80;;;;;;;;;;4968965;28;20037;-55
2021/10/02 12:23:58;;;;;;;17.20;5.38;;;;;;;;;;4969263;28;20030;-54
2021/10/02 12:26:27;;;;;;;14.68;5.97;;;;;;;;;;4969355;28;20038;-48
2021/10/02 12:28:57;;;;;;;7.03;4.80;;;;;;;;;;4969002;28;20066;-49
2021/10/02 12:31:26;;;;;;;10.45;4.70;;;;;;;;;;4968971;28;20026;-57
2021/10/02 12:34:11;;;;;;;8.23;5.38;;;;;;;;;;4966563;28;20155;-58
2021/10/02 12:36:44;;;;;;;10.98;5.40;;;;;;;;;;4949552;28;20035;-50
2021/10/02 12:39:10;;;;;;;10.13;5.07;;;;;;;;;;4949733;28;20023;-58
2021/10/02 12:41:38;;;;;;;8.85;5.32;;;;;;;;;;4949781;28;20039;-49
2021/10/02 12:44:05;;;;;;;8.90;4.95;;;;;;;;;;4949390;28;20026;-53
2021/10/02 12:46:31;;;;;;;9.57;4.72;;;;;;;;;;4985372;28;20034;-49
2021/10/02 12:48:57;;;;;;;13.75;5.72;;;;;;;;;;4995334;28;20085;-52
2021/10/02 12:51:24;;;;;;;9.55;5.30;;;;;;;;;;4993438;28;20101;-54
2021/10/02 12:53:50;;;;;;;12.63;5.35;;;;;;;;;;4958751;28;20033;-53
2021/10/02 12:56:17;;;;;;;10.27;4.63;;;;;;;;;;4959182;28;20033;-55
2021/10/02 12:58:46;;;;;;;8.65;5.55;;;;;;;;;;4959073;28;20038;-51
2021/10/02 13:01:12;;;;;;;10.38;4.43;;;;;;;;;;4958922;28;20049;-50
2021/10/02 13:03:39;;;;;;;11.15;5.15;;;;;;;;;;4966500;28;20383;-50
2021/10/02 13:06:06;;;;;;;9.25;5.03;;;;;;;;;;4975715;28;20054;-49
2021/10/02 13:08:32;;;;;;;10.88;4.93;;;;;;;;;;4975419;28;20081;-49
2021/10/02 13:11:01;;;;;;;9.90;4.80;;;;;;;;;;4975736;28;20030;-48
2021/10/02 13:13:27;;;;;;;14.65;4.78;;;;;;;;;;4975548;28;20027;-48
2021/10/02 13:15:54;;;;;;;13.18;5.22;;;;;;;;;;4975316;28;20082;-48
2021/10/02 13:18:27;;;;;;;13.73;5.32;;;;;;;;;;4975467;28;20035;-48
2021/10/02 13:20:55;;;;;;;10.98;5.13;;;;;;;;;;4975308;28;20526;-47
2021/10/02 13:23:39;;;;;;;7.10;4.75;;;;;;;;;;4975233;28;20074;-49
2021/10/02 13:26:10;;;;;;;7.32;4.40;;;;;;;;;;4975173;28;20109;-53
2021/10/02 13:28:50;;;;;;;9.68;4.85;;;;;;;;;;4974996;28;20126;-52
2021/10/02 13:31:16;;;;;;;9.10;5.40;;;;;;;;;;4975392;28;20039;-47
2021/10/02 13:33:46;;;;;;;11.82;4.80;;;;;;;;;;4976098;28;20035;-48
2021/10/02 13:36:21;;;;;;;10.48;5.00;;;;;;;;;;4994722;28;20049;-48
2021/10/02 13:38:47;;;;;;;13.65;5.95;;;;;;;;;;4994472;28;20060;-47
2021/10/02 13:41:18;;;;;;;10.80;4.88;;;;;;;;;;4994394;28;20030;-47
2021/10/02 13:44:13;;;;;;;17.35;5.55;;;;;;;;;;4994567;28;20073;-46
2021/10/02 13:46:43;;;;;;;14.85;8.25;;;;;;;;;;4953544;28;20035;-45
2021/10/02 13:49:10;;;;;;;13.45;5.10;;;;;;;;;;4953568;28;20031;-46
2021/10/02 13:51:36;;;;;;;10.52;5.70;;;;;;;;;;4953572;28;20059;-49
2021/10/02 13:54:03;;;;;;;8.82;5.80;;;;;;;;;;4953500;29;20039;-47
2021/10/02 13:56:42;;;;;;;12.70;4.78;;;;;;;;;;4951828;29;20035;-46
2021/10/02 13:59:08;;;;;;;11.30;4.80;;;;;;;;;;4951305;28;20035;-48
2021/10/02 14:01:34;;;;;;;10.18;4.45;;;;;;;;;;4951691;28;20078;-47
2021/10/02 14:04:00;;;;;;;10.60;4.30;;;;;;;;;;4952535;29;20050;-47
2021/10/02 14:06:26;;;;;;;13.32;4.50;;;;;;;;;;4953144;28;20035;-47
2021/10/02 14:08:53;;;;;;;17.48;5.15;;;;;;;;;;4953087;29;20077;-47
2021/10/02 14:11:20;;;;;;;9.20;4.30;;;;;;;;;;4953050;29;20039;-47
2021/10/02 14:13:46;;;;;;;9.20;5.00;;;;;;;;;;4952870;29;20482;-49
2021/10/02 14:16:12;;;;;;;9.73;4.75;;;;;;;;;;4952929;29;20078;-50
2021/10/02 14:18:38;;;;;;;11.15;4.65;;;;;;;;;;4953086;29;20045;-47
2021/10/02 14:21:04;;;;;;;13.23;5.00;;;;;;;;;;4952975;28;20515;-48
2021/10/02 14:23:30;;;;;;;11.25;4.78;;;;;;;;;;4981203;28;20038;-48
2021/10/02 14:25:56;;;;;;;13.95;4.43;;;;;;;;;;4993867;28;20509;-48
2021/10/02 14:28:24;;;;;;;11.57;4.88;;;;;;;;;;4993525;28;20078;-47
2021/10/02 14:30:50;;;;;;;11.57;4.63;;;;;;;;;;4993826;28;20046;-47
2021/10/02 14:33:20;;;;;;;10.75;4.70;;;;;;;;;;4993728;28;20080;-51
2021/10/02 14:35:46;;;;;;;10.50;5.30;;;;;;;;;;4993705;28;20054;-49
2021/10/02 14:38:15;;;;;;;11.50;5.10;;;;;;;;;;4993761;28;20094;-55
2021/10/02 14:40:42;;;;;;;13.68;4.82;;;;;;;;;;4993921;28;20026;-47
2021/10/02 14:43:08;;;;;;;14.20;5.07;;;;;;;;;;4993663;28;20058;-47
2021/10/02 14:45:34;;;;;;;11.80;4.32;;;;;;;;;;4993536;28;20033;-47
2021/10/02 14:48:00;;;;;;;9.18;4.07;;;;;;;;;;4993595;28;20030;-47
2021/10/02 14:50:27;;;;;;;8.15;5.65;;;;;;;;;;4993438;28;20109;-47
2021/10/02 14:52:53;;;;;;;11.85;6.43;;;;;;;;;;4993699;28;20031;-48
2021/10/02 14:55:20;;;;;;;12.55;5.97;;;;;;;;;;4993737;28;20031;-47
2021/10/02 14:57:46;;;;;;;79.25;49.85;;;;;;;;;;4993615;28;20105;-47
2021/10/02 15:00:15;;;;;;;63.70;35.17;;;;;;;;;;4993504;28;20026;-47
2021/10/02 15:02:45;;;;;;;25.52;14.68;;;;;;;;;;4993625;28;20030;-50
2021/10/02 15:05:11;;;;;;;50.55;30.48;;;;;;;;;;4993378;28;20023;-48
2021/10/02 15:07:41;;;;;;;46.88;25.20;;;;;;;;;;4993304;28;20027;-49
2021/10/02 15:10:09;;;;;;;24.38;14.65;;;;;;;;;;4993567;28;20037;-47
2021/10/02 15:12:36;;;;;;;33.80;14.95;;;;;;;;;;4989133;28;20023;-47
2021/10/02 15:15:03;;;;;;;20.10;12.27;;;;;;;;;;4986128;28;20026;-47
2021/10/02 15:17:30;;;;;;;28.95;17.13;;;;;;;;;;4987584;28;20451;-47
2021/10/02 15:19:56;;;;;;;19.40;11.82;;;;;;;;;;4987011;28;20027;-47
2021/10/02 15:22:25;;;;;;;18.63;10.73;;;;;;;;;;4986031;28;20053;-46
2021/10/02 15:24:57;;;;;;;35.85;19.63;;;;;;;;;;4987391;28;20022;-47
2021/10/02 15:27:28;;;;;;;20.33;10.43;;;;;;;;;;4987918;28;20023;-47
2021/10/02 15:29:54;;;;;;;;;;;;;;;;;;4987507;28;20050;-46
2021/10/02 15:32:21;;;;;;;19.73;10.80;;;;;;;;;;4995907;28;20411;-48